Time;durP1;ratioP1;P1;durP2;ratioP2;P2;SDS_P1;SDS_P2;PMS_P1;PMS_P2;Temp;Humidity;BMP_temperature;BMP_pressure;BME280_temperature;BME280_humidity;BME280_pressure;Samples;Min_cycle;Max_cycle;Signal;HPM_P1;HPM_P2
2022/10/06 00:02:12;;;;;;;4.25;2.55;;;;;;;14.20;100.00;100378.58;1686910;82;21590;-58
2022/10/06 00:04:39;;;;;;;4.55;2.30;;;;;;;14.22;100.00;100370.55;1687467;82;20989;-58
2022/10/06 00:07:06;;;;;;;2.62;2.30;;;;;;;14.16;100.00;100372.16;1691579;82;21012;-58
2022/10/06 00:09:33;;;;;;;6.42;2.52;;;;;;;14.16;100.00;100362.91;1691609;82;21476;-59
2022/10/06 00:11:59;;;;;;;5.25;2.92;;;;;;;14.15;100.00;100366.50;1690718;82;21879;-59
2022/10/06 00:14:26;;;;;;;3.37;2.02;;;;;;;14.21;100.00;100364.89;1685125;82;21429;-59
2022/10/06 00:16:53;;;;;;;7.45;2.65;;;;;;;14.27;100.00;100369.03;1679645;82;21540;-59
2022/10/06 00:19:20;;;;;;;3.52;2.08;;;;;;;14.30;100.00;100372.87;1695268;82;21476;-59
2022/10/06 00:21:47;;;;;;;4.30;2.27;;;;;;;14.32;100.00;100366.56;1684556;82;21414;-59
2022/10/06 00:24:14;;;;;;;8.50;2.90;;;;;;;14.34;100.00;100366.50;1694298;82;21837;-59
2022/10/06 00:26:42;;;;;;;;;;;;;;;14.33;100.00;100364.77;1692325;84;21516;-59
2022/10/06 00:29:08;;;;;;;5.87;2.60;;;;;;;14.29;100.00;100373.31;1682760;82;20458;-59
2022/10/06 00:31:35;;;;;;;3.47;2.27;;;;;;;14.21;100.00;100368.38;1694618;83;21419;-58
2022/10/06 00:34:02;;;;;;;6.05;2.35;;;;;;;14.18;100.00;100363.25;1682946;82;21572;-58
2022/10/06 00:36:30;;;;;;;3.05;2.35;;;;;;;14.24;100.00;100367.84;1685062;82;21764;-58
2022/10/06 00:38:58;;;;;;;5.62;3.00;;;;;;;14.34;100.00;100360.73;1709181;81;21599;-58
2022/10/06 00:41:25;;;;;;;3.27;2.42;;;;;;;14.45;100.00;100353.62;1709445;83;21591;-59
2022/10/06 00:43:56;;;;;;;6.33;3.40;;;;;;;14.49;100.00;100357.83;1636159;86;21501;-59
2022/10/06 00:46:43;;;;;;;5.22;3.10;;;;;;;14.46;100.00;100351.83;1677046;83;21573;-58
2022/10/06 00:49:25;;;;;;;6.33;3.12;;;;;;;14.43;100.00;100358.13;1670300;83;21828;-59
2022/10/06 00:51:59;;;;;;;3.42;3.12;;;;;;;14.40;100.00;100355.63;1671628;83;21432;-59
2022/10/06 00:54:25;;;;;;;4.87;2.75;;;;;;;14.35;100.00;100358.50;1674978;83;21622;-59
2022/10/06 00:56:52;;;;;;;4.95;2.72;;;;;;;14.40;100.00;100366.20;1673377;83;21038;-59
2022/10/06 00:59:19;;;;;;;4.50;3.20;;;;;;;14.43;100.00;100358.58;1673526;83;21495;-58
2022/10/06 01:02:02;;;;;;;4.30;2.37;;;;;;;14.52;100.00;100356.81;1668882;83;21823;-59
2022/10/06 01:04:34;;;;;;;8.83;2.95;;;;;;;14.56;100.00;100358.38;1676230;83;21082;-59
2022/10/06 01:07:01;;;;;;;5.58;2.70;;;;;;;14.48;100.00;100355.25;1669826;83;21480;-59
2022/10/06 01:09:28;;;;;;;5.70;2.60;;;;;;;14.39;100.00;100353.45;1652625;85;21538;-59
2022/10/06 01:12:03;;;;;;;4.20;2.87;;;;;;;14.36;100.00;100346.13;1666737;83;21496;-59
2022/10/06 01:14:29;;;;;;;5.53;3.08;;;;;;;14.32;100.00;100337.47;1670645;83;21848;-59
2022/10/06 01:17:18;;;;;;;5.15;2.17;;;;;;;14.34;100.00;100335.61;1687565;83;21601;-59
2022/10/06 01:19:52;;;;;;;3.50;2.12;;;;;;;14.40;100.00;100332.66;1679028;83;21508;-59
2022/10/06 01:22:33;;;;;;;6.12;2.35;;;;;;;14.46;100.00;100334.16;1666717;83;21549;-59
2022/10/06 01:24:59;;;;;;;5.80;2.42;;;;;;;14.48;100.00;100339.38;1675458;83;21547;-59
2022/10/06 01:27:28;;;;;;;6.30;2.00;;;;;;;14.46;100.00;100343.89;1646184;85;21838;-58
2022/10/06 01:29:56;;;;;;;3.08;1.80;;;;;;;14.43;100.00;100344.02;1674643;83;21467;-58
2022/10/06 01:32:23;;;;;;;4.23;2.37;;;;;;;14.36;100.00;100337.71;1667158;83;21563;-58
2022/10/06 01:34:50;;;;;;;3.08;2.15;;;;;;;14.32;100.00;100333.97;1678900;83;21172;-59
2022/10/06 01:37:17;;;;;;;3.22;1.77;;;;;;;14.28;100.00;100336.34;1665511;83;21648;-58
2022/10/06 01:39:44;;;;;;;3.12;2.00;;;;;;;14.26;100.00;100328.95;1673443;83;21871;-58
2022/10/06 01:42:11;;;;;;;4.83;2.00;;;;;;;14.33;100.00;100340.97;1683256;83;21515;-58
2022/10/06 01:44:37;;;;;;;2.87;2.00;;;;;;;14.35;100.00;100337.77;1678110;83;21083;-58
2022/10/06 01:47:05;;;;;;;6.08;2.35;;;;;;;14.37;100.00;100335.47;1671226;83;21510;-58
2022/10/06 01:49:32;;;;;;;2.60;2.10;;;;;;;14.29;100.00;100338.08;1662404;83;22199;-59
2022/10/06 01:51:59;;;;;;;3.95;2.45;;;;;;;14.17;100.00;100335.08;1673345;83;21807;-59
2022/10/06 01:54:25;;;;;;;5.03;2.80;;;;;;;14.13;100.00;100328.70;1673313;83;21439;-59
2022/10/06 01:56:53;;;;;;;5.95;2.72;;;;;;;14.04;100.00;100336.58;1666991;85;21511;-59
2022/10/06 01:59:20;;;;;;;4.67;2.12;;;;;;;14.02;100.00;100340.61;1667167;83;21582;-58
2022/10/06 02:01:47;;;;;;;3.10;2.20;;;;;;;14.05;100.00;100346.20;1653665;83;21503;-58
2022/10/06 02:04:13;;;;;;;4.60;2.05;;;;;;;14.08;100.00;100347.40;1677178;83;21798;-59
2022/10/06 02:06:40;;;;;;;4.33;2.20;;;;;;;14.15;100.00;100347.98;1680776;83;21423;-58
2022/10/06 02:09:07;;;;;;;3.58;2.62;;;;;;;14.12;100.00;100346.32;1678873;83;21045;-58
2022/10/06 02:11:34;;;;;;;2.08;1.77;;;;;;;14.02;100.00;100339.76;1665804;85;21550;-58
2022/10/06 02:14:03;;;;;;;5.65;2.15;;;;;;;13.98;100.00;100331.58;1676051;83;21661;-59
2022/10/06 02:16:30;;;;;;;5.87;2.15;;;;;;;13.93;100.00;100335.73;1675654;83;21760;-58
2022/10/06 02:18:57;;;;;;;2.25;1.85;;;;;;;13.89;100.00;100338.13;1671533;83;21516;-59
2022/10/06 02:21:24;;;;;;;5.47;2.00;;;;;;;13.92;100.00;100338.45;1669372;83;21470;-58
2022/10/06 02:23:51;;;;;;;5.67;2.47;;;;;;;13.96;100.00;100339.58;1674075;83;20984;-59
2022/10/06 02:26:17;;;;;;;6.33;2.17;;;;;;;14.02;100.00;100340.61;1671425;83;21574;-59
2022/10/06 02:28:45;;;;;;;2.70;2.08;;;;;;;13.97;100.00;100341.75;1662068;83;21853;-59
2022/10/06 02:31:13;;;;;;;;;;;;;;;13.91;100.00;100342.03;1678166;83;21082;-59
2022/10/06 02:33:40;;;;;;;2.15;1.77;;;;;;;13.79;100.00;100350.91;1659808;84;20519;-59
2022/10/06 02:36:07;;;;;;;3.35;2.22;;;;;;;13.69;100.00;100354.03;1658100;84;21575;-59
2022/10/06 02:38:35;;;;;;;4.10;1.87;;;;;;;13.62;100.00;100354.78;1623631;86;21709;-59
2022/10/06 02:41:04;;;;;;;5.37;2.17;;;;;;;13.60;100.00;100360.13;1648925;84;21996;-59
2022/10/06 02:43:32;;;;;;;3.45;2.17;;;;;;;13.66;100.00;100363.43;1646426;85;21430;-58
2022/10/06 02:46:14;;;;;;;3.65;1.90;;;;;;;13.68;100.00;100366.86;1651631;84;21636;-59
2022/10/06 02:48:41;;;;;;;2.77;1.65;;;;;;;13.74;100.00;100370.07;1659989;84;21041;-61
2022/10/06 02:51:14;;;;;;;5.47;2.80;;;;;;;13.75;100.00;100369.59;1655189;84;21703;-58
2022/10/06 02:53:45;;;;;;;4.28;2.02;;;;;;;13.76;100.00;100368.69;1696617;82;22135;-58
2022/10/06 02:56:21;;;;;;;2.08;1.87;;;;;;;13.72;100.00;100366.64;1681966;83;21142;-58
2022/10/06 02:58:49;;;;;;;6.12;1.90;;;;;;;13.73;100.00;100360.45;1691330;81;21434;-58
2022/10/06 03:01:25;;;;;;;6.25;2.50;;;;;;;13.68;100.00;100372.14;1667148;82;21577;-58
2022/10/06 03:03:55;;;;;;;5.47;2.15;;;;;;;13.63;100.00;100374.50;1694226;82;21552;-58
2022/10/06 03:06:29;;;;;;;5.42;2.72;;;;;;;13.58;100.00;100371.66;1703307;82;21446;-58
2022/10/06 03:09:07;;;;;;;3.08;1.90;;;;;;;13.56;100.00;100373.52;1686720;82;21524;-58
2022/10/06 03:11:38;;;;;;;4.70;2.52;;;;;;;13.55;100.00;100375.78;1689784;82;21508;-58
2022/10/06 03:14:06;;;;;;;7.15;2.35;;;;;;;13.56;100.00;100373.08;1690248;84;21460;-58
2022/10/06 03:18:55;;;;;;;3.62;2.15;;;;;;;12.94;100.00;100380.49;1781548;78;23181;-59
2022/10/06 03:21:28;;;;;;;4.35;2.47;;;;;;;13.48;100.00;100365.08;1743018;80;26662;-59
2022/10/06 03:23:57;;;;;;;4.42;2.17;;;;;;;13.43;100.00;100362.17;1701800;83;21805;-60
2022/10/06 03:26:29;;;;;;;3.10;2.40;;;;;;;13.37;100.00;100365.53;1702175;83;21091;-59
2022/10/06 03:28:56;;;;;;;5.20;2.50;;;;;;;13.36;100.00;100358.55;1706884;83;21327;-59
2022/10/06 03:31:24;;;;;;;6.25;2.83;;;;;;;13.33;100.00;100360.84;1694907;81;20957;-59
2022/10/06 03:33:51;;;;;;;3.08;2.33;;;;;;;13.30;100.00;100364.03;1698098;82;21502;-61
2022/10/06 03:36:20;;;;;;;4.78;2.42;;;;;;;13.31;100.00;100367.97;1667862;83;21820;-60
2022/10/06 03:38:47;;;;;;;5.50;2.30;;;;;;;13.24;100.00;100368.68;1698781;83;21029;-59
2022/10/06 03:41:20;;;;;;;6.63;3.50;;;;;;;13.14;100.00;100365.16;1706480;81;21620;-59
2022/10/06 03:43:48;;;;;;;4.80;2.42;;;;;;;13.04;100.00;100356.77;1691015;83;21025;-59
2022/10/06 03:46:19;;;;;;;;;;;;;;;12.93;100.00;100366.45;1690739;83;21072;-60
2022/10/06 03:48:47;;;;;;;4.42;2.35;;;;;;;12.83;100.00;100362.01;1696255;83;21885;-59
2022/10/06 03:51:19;;;;;;;3.50;2.47;;;;;;;12.80;100.00;100365.23;1698878;82;21661;-57
2022/10/06 03:53:48;;;;;;;6.83;2.42;;;;;;;12.76;100.00;100369.77;1690040;82;21542;-58
2022/10/06 03:56:21;;;;;;;6.30;2.77;;;;;;;12.71;100.00;100370.41;1697308;82;21539;-58
2022/10/06 03:58:50;;;;;;;5.08;2.58;;;;;;;12.74;100.00;100374.25;1698835;83;21093;-59
2022/10/06 04:01:32;;;;;;;3.45;2.30;;;;;;;12.73;100.00;100374.31;1692519;82;21828;-59
2022/10/06 04:04:00;;;;;;;6.53;2.55;;;;;;;12.72;100.00;100373.93;1706979;83;21561;-58
2022/10/06 04:06:29;;;;;;;4.83;3.00;;;;;;;12.65;100.00;100371.52;1699105;83;21540;-57
2022/10/06 04:08:56;;;;;;;5.45;3.37;;;;;;;12.55;100.00;100368.85;1695549;83;21556;-58
2022/10/06 04:11:27;;;;;;;8.83;3.17;;;;;;;12.50;100.00;100367.31;1697757;82;20945;-58
2022/10/06 04:14:03;;;;;;;5.97;3.15;;;;;;;12.46;100.00;100375.34;1700211;83;21790;-59
2022/10/06 04:16:37;;;;;;;4.45;3.65;;;;;;;12.45;100.00;100379.34;1698939;82;21478;-59
2022/10/06 04:19:12;;;;;;;12.23;8.28;;;;;;;12.36;100.00;100381.90;1683909;83;21435;-59
2022/10/06 04:21:41;;;;;;;7.58;5.70;;;;;;;12.36;100.00;100387.17;1681099;83;21566;-58
2022/10/06 04:24:10;;;;;;;11.25;5.47;;;;;;;12.33;100.00;100392.55;1722068;81;21452;-59
2022/10/06 04:26:43;;;;;;;9.25;4.28;;;;;;;12.32;100.00;100392.60;1719594;82;21870;-59
2022/10/06 04:29:12;;;;;;;5.92;3.90;;;;;;;12.22;100.00;100386.83;1724468;80;20979;-59
2022/10/06 04:31:39;;;;;;;7.62;4.17;;;;;;;12.11;100.00;100379.78;1720113;80;25651;-58
2022/10/06 04:34:09;;;;;;;6.92;3.52;;;;;;;12.10;100.00;100383.35;1721366;80;21536;-59
2022/10/06 04:36:39;;;;;;;7.62;3.70;;;;;;;12.10;100.00;100388.16;1674972;84;21557;-58
2022/10/06 04:39:10;;;;;;;4.30;3.35;;;;;;;12.11;100.00;100383.30;1682441;84;21580;-59
2022/10/06 04:41:41;;;;;;;10.08;4.20;;;;;;;12.05;100.00;100396.68;1726257;80;21479;-59
2022/10/06 04:44:09;;;;;;;11.38;5.50;;;;;;;12.10;100.00;100395.21;1711689;80;21574;-59
2022/10/06 04:46:36;;;;;;;10.13;4.35;;;;;;;12.10;100.00;100393.89;1720220;81;21116;-59
2022/10/06 04:49:03;;;;;;;7.62;4.00;;;;;;;12.04;100.00;100399.78;1677352;84;21498;-58
2022/10/06 04:51:32;;;;;;;10.25;7.37;;;;;;;12.01;100.00;100398.56;1725987;81;21814;-59
2022/10/06 04:54:02;;;;;;;9.18;5.10;;;;;;;11.99;100.00;100400.40;1707273;80;21430;-59
2022/10/06 04:56:30;;;;;;;11.40;7.37;;;;;;;11.95;100.00;100404.07;1714319;82;21550;-58
2022/10/06 04:58:59;;;;;;;8.93;5.50;;;;;;;12.00;100.00;100402.14;1727500;81;21578;-59
2022/10/06 05:01:33;;;;;;;6.90;4.78;;;;;;;12.06;100.00;100403.69;1733152;81;21001;-59
2022/10/06 05:04:03;;;;;;;8.80;4.78;;;;;;;12.15;100.00;100403.78;1690926;84;21846;-59
2022/10/06 05:06:37;;;;;;;8.25;7.00;;;;;;;12.22;100.00;100405.28;1727437;82;21455;-59
2022/10/06 05:09:07;;;;;;;9.68;6.08;;;;;;;12.26;100.00;100401.61;1683804;83;21456;-60
2022/10/06 05:11:34;;;;;;;13.68;7.90;;;;;;;12.33;100.00;100400.46;1691342;82;21423;-60
2022/10/06 05:14:02;;;;;;;;;;;;;;;12.32;100.00;100401.40;1724075;81;21537;-60
2022/10/06 05:16:30;;;;;;;9.30;6.00;;;;;;;12.25;100.00;100399.91;1714531;80;22040;-59
2022/10/06 05:18:58;;;;;;;12.75;9.40;;;;;;;12.17;100.00;100406.78;1734713;80;21396;-59
2022/10/06 05:21:28;;;;;;;8.10;6.67;;;;;;;12.22;100.00;100406.60;1742207;80;21525;-59
2022/10/06 05:23:55;;;;;;;9.50;5.40;;;;;;;12.34;100.00;100407.91;1725171;80;21801;-60
2022/10/06 05:26:24;;;;;;;8.05;5.90;;;;;;;12.43;100.00;100412.40;1721703;78;21616;-60
2022/10/06 05:28:52;;;;;;;9.95;5.55;;;;;;;12.53;100.00;100408.09;1738901;80;22120;-62
2022/10/06 05:31:21;;;;;;;10.48;5.45;;;;;;;12.63;100.00;100407.65;1701012;82;21513;-60
2022/10/06 05:33:48;;;;;;;9.48;6.42;;;;;;;12.70;100.00;100417.52;1693212;82;21490;-60
2022/10/06 05:36:19;;;;;;;7.90;5.58;;;;;;;12.79;100.00;100415.84;1683588;83;21532;-60
2022/10/06 05:38:49;;;;;;;5.28;4.42;;;;;;;12.80;100.00;100418.01;1655847;84;21567;-59
2022/10/06 05:41:21;;;;;;;8.25;5.30;;;;;;;12.78;100.00;100417.21;1684332;83;21822;-60
2022/10/06 05:43:48;;;;;;;9.48;6.30;;;;;;;12.82;100.00;100415.70;1686591;83;21543;-59
2022/10/06 05:46:19;;;;;;;7.37;6.05;;;;;;;12.93;100.00;100418.39;1691171;82;21636;-59
2022/10/06 05:48:48;;;;;;;6.00;4.92;;;;;;;13.08;100.00;100416.91;1689037;84;21912;-59
2022/10/06 05:51:18;;;;;;;6.05;4.65;;;;;;;13.23;100.00;100421.55;1684808;84;21634;-60
2022/10/06 05:53:46;;;;;;;7.67;4.97;;;;;;;13.37;100.00;100421.00;1677497;83;21940;-59
2022/10/06 05:56:19;;;;;;;9.10;6.62;;;;;;;13.48;100.00;100417.44;1674692;83;21523;-60
2022/10/06 05:58:48;;;;;;;15.15;10.03;;;;;;;13.61;100.00;100411.17;1685626;83;21453;-60
2022/10/06 06:01:22;;;;;;;12.28;8.10;;;;;;;13.69;100.00;100410.37;1678146;82;21512;-60
2022/10/06 06:03:55;;;;;;;10.75;7.37;;;;;;;13.75;100.00;100415.41;1669710;83;21495;-59
2022/10/06 06:06:29;;;;;;;8.05;6.50;;;;;;;13.79;100.00;100410.86;1685338;83;21437;-60
2022/10/06 06:09:05;;;;;;;8.68;5.58;;;;;;;13.81;100.00;100416.92;1677002;83;21574;-60
2022/10/06 06:11:33;;;;;;;7.20;4.33;;;;;;;13.92;100.00;100427.00;1687023;84;21531;-59
2022/10/06 06:14:07;;;;;;;4.87;3.83;;;;;;;14.01;100.00;100421.31;1678275;83;21524;-60
2022/10/06 06:16:34;;;;;;;5.03;4.53;;;;;;;14.09;100.00;100415.23;1676514;84;21552;-60
2022/10/06 06:19:03;;;;;;;5.10;4.22;;;;;;;14.21;100.00;100417.31;1674053;82;21473;-60
2022/10/06 06:21:31;;;;;;;11.60;5.30;;;;;;;14.29;100.00;100411.66;1674285;84;21126;-60
2022/10/06 06:23:57;;;;;;;8.60;5.47;;;;;;;14.34;100.00;100414.96;1661653;84;21520;-60
2022/10/06 06:26:29;;;;;;;7.37;4.62;;;;;;;14.39;100.00;100416.94;1729308;80;21412;-59
2022/10/06 06:29:05;;;;;;;22.10;12.28;;;;;;;14.52;100.00;100417.23;1683369;84;21945;-62
2022/10/06 06:31:37;;;;;;;23.70;15.80;;;;;;;14.70;100.00;100413.34;1719750;80;21779;-60
2022/10/06 06:34:06;;;;;;;8.75;7.30;;;;;;;14.85;100.00;100417.91;1722393;80;21402;-61
2022/10/06 06:36:39;;;;;;;9.15;6.90;;;;;;;15.05;100.00;100415.63;1729537;80;21496;-60
2022/10/06 06:39:10;;;;;;;14.78;11.00;;;;;;;15.19;100.00;100409.16;1682640;82;21455;-60
2022/10/06 06:41:47;;;;;;;8.73;5.78;;;;;;;15.25;100.00;100411.96;1721546;80;21409;-60
2022/10/06 06:44:16;;;;;;;8.20;5.40;;;;;;;15.34;100.00;100405.36;1716452;81;21870;-60
2022/10/06 06:46:47;;;;;;;9.55;5.03;;;;;;;15.45;100.00;100406.15;1683510;83;21438;-60
2022/10/06 06:49:16;;;;;;;6.78;3.95;;;;;;;15.53;100.00;100407.45;1726705;81;21554;-60
2022/10/06 06:51:53;;;;;;;6.87;3.80;;;;;;;15.66;100.00;100410.81;1717532;80;21437;-59
2022/10/06 06:54:21;;;;;;;4.40;2.65;;;;;;;15.74;100.00;100407.31;1720570;81;21038;-59
2022/10/06 06:56:50;;;;;;;3.75;2.22;;;;;;;15.90;100.00;100404.73;1718874;81;21891;-60
2022/10/06 06:59:19;;;;;;;5.72;2.92;;;;;;;16.06;100.00;100406.09;1737864;80;21535;-61
2022/10/06 07:01:48;;;;;;;8.23;2.70;;;;;;;16.16;100.00;100398.00;1717784;80;21523;-61
2022/10/06 07:04:17;;;;;;;3.77;2.00;;;;;;;16.26;100.00;100400.56;1725730;80;21566;-60
2022/10/06 07:06:55;;;;;;;4.35;2.62;;;;;;;16.37;100.00;100397.78;1725329;81;21666;-61
2022/10/06 07:09:13;;;;;;;5.53;2.33;;;;;;;16.45;100.00;100404.39;1720260;80;21535;-60
2022/10/06 07:11:41;;;;;;;4.42;2.35;;;;;;;16.52;100.00;100389.00;1718296;80;21432;-61
2022/10/06 07:14:11;;;;;;;2.77;1.92;;;;;;;16.53;100.00;100395.52;1726630;81;21561;-61
2022/10/06 07:25:14;;;;;;;3.55;2.10;;;;;;;16.66;100.00;100394.84;1689786;82;21556;-61
2022/10/06 07:27:49;;;;;;;4.60;2.02;;;;;;;16.74;100.00;100400.13;1696683;82;21458;-61
2022/10/06 07:30:23;;;;;;;3.67;1.95;;;;;;;16.83;100.00;100392.60;1701017;82;21553;-61
2022/10/06 07:32:52;;;;;;;5.12;2.33;;;;;;;16.93;100.00;100399.97;1693218;82;21426;-62
2022/10/06 07:35:21;;;;;;;4.42;2.12;;;;;;;16.97;100.00;100397.99;1677085;83;21787;-62
2022/10/06 07:37:52;;;;;;;3.05;2.10;;;;;;;17.06;100.00;100396.11;1694830;82;21578;-62
2022/10/06 07:40:19;;;;;;;6.17;2.62;;;;;;;17.09;99.98;100397.27;1705920;82;21544;-61
2022/10/06 07:42:52;;;;;;;5.40;2.17;;;;;;;17.11;99.67;100391.88;1693771;82;21426;-63
2022/10/06 07:45:48;;;;;;;2.87;1.60;;;;;;;17.10;99.52;100392.35;1659892;84;21542;-61
2022/10/06 07:48:21;;;;;;;3.50;1.82;;;;;;;17.10;99.16;100389.70;1595225;87;22011;-61
2022/10/06 07:50:56;;;;;;;2.52;2.10;;;;;;;17.22;99.72;100388.12;1655026;84;21664;-61
2022/10/06 07:53:26;;;;;;;4.70;1.87;;;;;;;17.28;99.02;100385.56;1654735;84;21600;-62
2022/10/06 07:56:05;;;;;;;6.67;2.33;;;;;;;17.34;97.93;100379.88;1654731;84;21518;-62
2022/10/06 07:58:36;;;;;;;2.90;2.12;;;;;;;17.38;97.38;100380.08;1626367;85;21653;-61
2022/10/06 08:01:10;;;;;;;4.28;2.42;;;;;;;17.45;97.08;100383.24;1629014;86;21785;-61
2022/10/06 08:03:39;;;;;;;3.75;2.00;;;;;;;17.48;95.99;100371.95;1597143;88;22882;-62
2022/10/06 08:06:14;;;;;;;3.83;2.15;;;;;;;17.51;95.30;100377.06;1606750;87;21195;-62
2022/10/06 08:08:39;;;;;;;3.35;1.80;;;;;;;17.60;96.06;100369.50;1633300;85;21092;-62
2022/10/06 08:11:07;;;;;;;5.35;2.00;;;;;;;17.71;96.13;100374.55;1615104;86;21677;-62
2022/10/06 08:13:55;;;;;;;3.10;2.30;;;;;;;17.78;94.57;100378.14;1677531;83;21816;-61
2022/10/06 08:16:28;;;;;;;2.72;2.12;;;;;;;17.86;93.65;100371.45;1681503;84;21512;-61
2022/10/06 08:18:53;;;;;;;3.25;2.30;;;;;;;17.84;94.07;100376.02;1683590;84;21491;-62
2022/10/06 08:21:27;;;;;;;8.30;2.65;;;;;;;17.95;93.59;100381.13;1647941;85;21506;-62
2022/10/06 08:23:56;;;;;;;2.90;2.35;;;;;;;18.11;92.44;100369.92;1684881;83;21584;-62
2022/10/06 08:26:25;;;;;;;2.70;2.30;;;;;;;18.18;92.47;100374.41;1665532;84;21792;-61
2022/10/06 08:28:54;;;;;;;;;;;;;;;18.27;91.87;100369.80;1665105;85;21049;-62
2022/10/06 08:31:21;;;;;;;3.60;2.25;;;;;;;18.38;90.90;100357.14;1665423;84;20425;-61
2022/10/06 08:33:49;;;;;;;3.00;2.20;;;;;;;18.40;91.86;100356.11;1666272;84;21473;-62
2022/10/06 08:36:18;;;;;;;;;;;;;;;18.43;91.25;100360.38;1667821;84;21549;-61
2022/10/06 08:38:50;;;;;;;5.90;2.40;;;;;;;18.50;87.99;100351.05;1652415;85;21942;-63
2022/10/06 08:41:47;;;;;;;3.55;2.10;;;;;;;18.60;91.20;100345.97;1646710;84;21580;-62
2022/10/06 08:44:22;;;;;;;2.50;1.90;;;;;;;18.77;90.42;100350.20;1653644;85;21504;-62
2022/10/06 08:47:17;;;;;;;2.55;2.27;;;;;;;18.90;89.59;100351.61;1636612;85;20991;-61
2022/10/06 08:49:46;;;;;;;2.25;1.82;;;;;;;18.98;89.50;100342.13;1704497;83;21664;-62
2022/10/06 08:52:52;;;;;;;2.95;2.12;;;;;;;19.16;89.47;100344.54;1709587;81;21751;-62
2022/10/06 08:55:43;;;;;;;3.70;2.47;;;;;;;19.20;88.27;100348.21;1698667;82;21541;-60
2022/10/06 08:58:33;;;;;;;4.00;2.70;;;;;;;19.22;87.29;100342.78;1708083;81;21600;-62
2022/10/06 09:01:19;;;;;;;4.85;2.45;;;;;;;19.25;87.44;100337.25;1709127;82;21515;-62
2022/10/06 09:03:47;;;;;;;3.85;2.17;;;;;;;19.33;86.65;100340.24;1706725;82;21536;-61
2022/10/06 09:06:30;;;;;;;3.67;1.98;;;;;;;19.42;87.31;100342.73;1707097;82;21716;-63
2022/10/06 09:09:14;;;;;;;2.00;1.90;;;;;;;19.50;86.34;100334.23;1699964;81;21061;-63
2022/10/06 09:11:47;;;;;;;2.70;2.20;;;;;;;19.63;85.11;100343.09;1703447;81;21592;-63
2022/10/06 09:14:32;;;;;;;5.60;2.22;;;;;;;19.71;83.01;100339.40;1704273;82;21166;-62
2022/10/06 09:17:02;;;;;;;4.00;1.80;;;;;;;19.76;82.90;100337.76;1704857;82;21531;-63
2022/10/06 09:19:46;;;;;;;2.27;1.70;;;;;;;19.86;83.38;100340.17;1705748;83;21807;-61
2022/10/06 09:22:18;;;;;;;4.30;1.92;;;;;;;19.98;82.14;100339.77;1706753;82;21624;-65
2022/10/06 09:24:49;;;;;;;3.90;2.00;;;;;;;20.09;81.11;100350.54;1673157;84;21490;-61
2022/10/06 09:27:32;;;;;;;2.50;1.95;;;;;;;20.10;80.44;100341.59;1650190;84;21622;-62
2022/10/06 09:30:00;;;;;;;3.30;2.40;;;;;;;20.19;80.41;100344.93;1677728;83;21590;-64
2022/10/06 09:32:27;;;;;;;;;;;;;;;20.30;79.85;100344.63;1681470;83;21932;-66
2022/10/06 09:34:58;;;;;;;2.75;1.95;;;;;;;20.46;76.12;100336.37;1680629;83;20428;-63
2022/10/06 09:37:25;;;;;;;3.02;2.00;;;;;;;20.49;78.73;100339.64;1637079;85;21535;-63
2022/10/06 09:39:52;;;;;;;2.70;1.60;;;;;;;20.59;76.89;100342.52;1646588;85;21488;-64
2022/10/06 09:42:34;;;;;;;1.92;1.77;;;;;;;20.62;75.70;100347.64;1648067;84;21634;-63
2022/10/06 09:45:07;;;;;;;2.20;1.70;;;;;;;20.66;75.52;100340.25;1640042;85;21881;-64
2022/10/06 09:48:02;;;;;;;2.72;2.15;;;;;;;20.76;75.21;100338.63;1674369;84;21014;-63
2022/10/06 09:50:30;;;;;;;3.05;1.75;;;;;;;20.87;74.61;100336.00;1642952;86;21522;-64
2022/10/06 09:53:04;;;;;;;2.17;1.98;;;;;;;20.92;74.32;100336.48;1643009;86;21499;-63
2022/10/06 09:55:40;;;;;;;3.52;1.52;;;;;;;20.92;72.44;100340.98;1643468;85;21520;-64
2022/10/06 09:58:18;;;;;;;3.22;1.80;;;;;;;21.06;72.63;100344.82;1642502;85;21891;-65
2022/10/06 10:01:05;;;;;;;4.95;1.98;;;;;;;21.03;70.68;100341.03;1641094;85;21578;-63
2022/10/06 10:03:56;;;;;;;6.65;2.08;;;;;;;21.06;70.73;100330.58;1643651;85;21559;-63
2022/10/06 10:06:27;;;;;;;2.62;1.55;;;;;;;21.09;70.23;100337.89;1640078;85;21525;-62
2022/10/06 10:09:26;;;;;;;2.80;2.33;;;;;;;21.13;70.01;100335.34;1619651;86;21542;-64
2022/10/06 10:14:53;;;;;;;4.30;1.92;;;;;;;21.31;69.30;100334.44;1683344;83;21554;-65
2022/10/06 10:17:34;;;;;;;4.12;2.10;;;;;;;21.50;69.50;100335.23;1681315;83;21522;-62
2022/10/06 10:20:04;;;;;;;3.05;1.90;;;;;;;21.57;67.67;100331.61;1683378;83;21498;-64
2022/10/06 10:22:38;;;;;;;3.30;2.22;;;;;;;21.59;66.98;100329.66;1682713;83;21621;-64
2022/10/06 10:25:13;;;;;;;2.75;1.65;;;;;;;21.63;66.06;100336.97;1683537;83;22038;-64
2022/10/06 10:27:57;;;;;;;3.77;1.60;;;;;;;21.65;66.92;100332.34;1678132;83;21559;-64
2022/10/06 10:30:23;;;;;;;1.65;1.52;;;;;;;21.78;66.64;100319.70;1683496;83;21586;-62
2022/10/06 10:33:15;;;;;;;3.62;1.87;;;;;;;21.78;66.64;100319.70;1680468;83;21620;-64
2022/10/06 10:35:45;;;;;;;2.27;1.77;;;;;;;21.81;65.75;100323.95;1680990;83;21046;-63
2022/10/06 10:38:22;;;;;;;3.90;1.75;;;;;;;21.86;63.60;100321.77;1683899;83;21790;-63
2022/10/06 10:41:05;;;;;;;3.12;2.08;;;;;;;21.85;64.46;100318.25;1678312;83;21522;-63
2022/10/06 10:43:36;;;;;;;1.98;1.77;;;;;;;21.92;64.62;100314.08;1643159;85;21534;-64
2022/10/06 10:46:15;;;;;;;6.10;2.10;;;;;;;21.92;64.62;100314.08;1679754;83;21498;-64
2022/10/06 10:48:50;;;;;;;2.98;1.80;;;;;;;22.07;63.92;100317.36;1685457;83;21024;-63
2022/10/06 10:51:28;;;;;;;2.05;1.82;;;;;;;22.07;63.92;100317.36;1689639;82;21813;-64
2022/10/06 10:54:12;;;;;;;2.65;2.17;;;;;;;22.18;63.19;100320.52;1684087;82;21570;-64
2022/10/06 10:56:38;;;;;;;4.87;1.87;;;;;;;22.13;61.63;100319.56;1681369;82;21597;-63
2022/10/06 10:59:26;;;;;;;4.00;2.00;;;;;;;22.37;61.46;100302.99;1687795;82;21456;-63
2022/10/06 11:02:18;;;;;;;3.20;1.47;;;;;;;22.37;61.46;100302.99;1685033;82;21605;-64
2022/10/06 11:04:48;;;;;;;1.70;1.60;;;;;;;22.57;59.20;100306.23;1613003;86;22139;-63
2022/10/06 11:07:47;;;;;;;3.12;2.00;;;;;;;22.57;59.20;100306.23;1687483;82;21542;-63
2022/10/06 11:10:28;;;;;;;3.58;1.85;;;;;;;22.51;60.05;100296.02;1686959;82;21618;-63
2022/10/06 11:13:35;;;;;;;3.40;1.85;;;;;;;22.35;59.01;100299.09;1690791;82;21552;-65
2022/10/06 11:16:36;;;;;;;4.53;1.60;;;;;;;22.35;59.01;100299.09;1682759;82;21491;-64
2022/10/06 11:19:15;;;;;;;1.85;1.17;;;;;;;22.58;60.44;100296.35;1659721;82;22178;-64
2022/10/06 11:22:03;;;;;;;3.17;1.55;;;;;;;22.78;59.67;100286.66;1690055;83;21547;-64
2022/10/06 11:24:47;;;;;;;1.57;1.47;;;;;;;22.78;59.67;100286.66;1666244;84;21608;-67
2022/10/06 11:27:37;;;;;;;1.57;1.40;;;;;;;22.87;58.31;100284.05;1689627;82;21638;-64
2022/10/06 11:30:15;;;;;;;6.08;1.80;;;;;;;22.85;58.53;100279.31;1689126;82;20987;-63
2022/10/06 11:33:08;;;;;;;5.58;1.52;;;;;;;22.92;59.14;100282.31;1687836;82;21846;-63
2022/10/06 11:35:38;;;;;;;1.60;1.50;;;;;;;22.92;59.14;100282.31;1687388;82;21463;-63
2022/10/06 11:38:19;;;;;;;2.75;1.47;;;;;;;22.86;57.27;100285.52;1690845;83;21552;-64
2022/10/06 11:41:00;;;;;;;3.47;1.70;;;;;;;22.86;57.27;100285.52;1691358;83;21540;-63
2022/10/06 11:43:59;;;;;;;2.30;1.45;;;;;;;22.88;57.87;100287.08;1691636;84;21499;-64
2022/10/06 11:46:52;;;;;;;2.80;1.50;;;;;;;22.88;57.87;100287.08;1691561;83;21757;-63
2022/10/06 11:49:35;;;;;;;2.35;1.62;;;;;;;22.87;57.02;100280.53;1691182;83;21507;-63
2022/10/06 11:52:11;;;;;;;2.45;1.90;;;;;;;22.87;57.02;100280.53;1691410;84;21574;-63
2022/10/06 11:55:13;;;;;;;2.02;1.65;;;;;;;22.94;56.33;100279.00;1687067;83;21528;-63
2022/10/06 11:58:09;;;;;;;4.05;1.60;;;;;;;22.90;56.16;100297.67;1656607;84;21559;-63
2022/10/06 12:00:42;;;;;;;4.08;1.50;;;;;;;22.87;55.56;100274.67;1656734;84;21476;-64
2022/10/06 12:03:31;;;;;;;4.87;1.60;;;;;;;22.92;55.08;100279.62;1656906;84;21620;-65